sensor_id;sensor_type;location;lat;lon;timestamp;P1;durP1;ratioP1;P2;durP2;ratioP2
50569;SDS011;36525;49.398;7.614;2022-11-15T00:01:06;11.82;;;6.15;;
50569;SDS011;36525;49.398;7.614;2022-11-15T00:03:43;10.50;;;6.40;;
50569;SDS011;36525;49.398;7.614;2022-11-15T00:06:10;11.07;;;5.90;;
50569;SDS011;36525;49.398;7.614;2022-11-15T00:08:37;9.63;;;6.55;;
50569;SDS011;36525;49.398;7.614;2022-11-15T00:11:04;8.13;;;5.60;;
50569;SDS011;36525;49.398;7.614;2022-11-15T00:13:31;9.98;;;5.15;;
50569;SDS011;36525;49.398;7.614;2022-11-15T00:15:59;9.00;;;5.63;;
50569;SDS011;36525;49.398;7.614;2022-11-15T00:18:27;8.18;;;4.95;;
50569;SDS011;36525;49.398;7.614;2022-11-15T00:20:56;10.10;;;5.43;;
50569;SDS011;36525;49.398;7.614;2022-11-15T00:23:33;9.02;;;4.90;;
50569;SDS011;36525;49.398;7.614;2022-11-15T00:26:00;7.63;;;5.22;;
50569;SDS011;36525;49.398;7.614;2022-11-15T00:28:27;9.75;;;4.85;;
50569;SDS011;36525;49.398;7.614;2022-11-15T00:30:59;7.38;;;4.68;;
50569;SDS011;36525;49.398;7.614;2022-11-15T00:33:31;7.82;;;4.82;;
50569;SDS011;36525;49.398;7.614;2022-11-15T00:36:09;7.20;;;4.93;;
50569;SDS011;36525;49.398;7.614;2022-11-15T00:38:37;7.95;;;4.80;;
50569;SDS011;36525;49.398;7.614;2022-11-15T00:41:06;9.98;;;5.15;;
50569;SDS011;36525;49.398;7.614;2022-11-15T00:43:35;6.93;;;4.53;;
50569;SDS011;36525;49.398;7.614;2022-11-15T00:46:02;6.25;;;4.65;;
50569;SDS011;36525;49.398;7.614;2022-11-15T00:48:29;7.28;;;4.47;;
50569;SDS011;36525;49.398;7.614;2022-11-15T00:50:57;6.47;;;4.43;;
50569;SDS011;36525;49.398;7.614;2022-11-15T00:53:24;7.30;;;4.30;;
50569;SDS011;36525;49.398;7.614;2022-11-15T00:55:51;8.35;;;4.43;;
50569;SDS011;36525;49.398;7.614;2022-11-15T00:58:18;6.72;;;4.60;;
50569;SDS011;36525;49.398;7.614;2022-11-15T01:00:45;9.38;;;4.75;;
50569;SDS011;36525;49.398;7.614;2022-11-15T01:03:12;6.00;;;3.95;;
50569;SDS011;36525;49.398;7.614;2022-11-15T01:05:39;6.25;;;4.00;;
50569;SDS011;36525;49.398;7.614;2022-11-15T01:08:10;7.05;;;3.85;;
50569;SDS011;36525;49.398;7.614;2022-11-15T01:10:40;7.47;;;4.22;;
50569;SDS011;36525;49.398;7.614;2022-11-15T01:13:07;8.43;;;3.85;;
50569;SDS011;36525;49.398;7.614;2022-11-15T01:15:38;5.80;;;3.35;;
50569;SDS011;36525;49.398;7.614;2022-11-15T01:18:06;6.40;;;3.55;;
50569;SDS011;36525;49.398;7.614;2022-11-15T01:20:34;5.05;;;3.25;;
50569;SDS011;36525;49.398;7.614;2022-11-15T01:23:05;7.50;;;3.83;;
50569;SDS011;36525;49.398;7.614;2022-11-15T01:25:32;8.80;;;3.90;;
50569;SDS011;36525;49.398;7.614;2022-11-15T01:27:59;6.38;;;3.33;;
50569;SDS011;36525;49.398;7.614;2022-11-15T01:30:26;5.88;;;3.20;;
50569;SDS011;36525;49.398;7.614;2022-11-15T01:32:53;9.23;;;4.10;;
50569;SDS011;36525;49.398;7.614;2022-11-15T01:35:20;6.35;;;3.50;;
50569;SDS011;36525;49.398;7.614;2022-11-15T01:37:47;5.45;;;3.15;;
50569;SDS011;36525;49.398;7.614;2022-11-15T01:40:14;5.72;;;3.55;;
50569;SDS011;36525;49.398;7.614;2022-11-15T01:42:41;6.30;;;2.85;;
50569;SDS011;36525;49.398;7.614;2022-11-15T01:45:17;5.60;;;3.20;;
50569;SDS011;36525;49.398;7.614;2022-11-15T01:47:51;8.60;;;3.70;;
50569;SDS011;36525;49.398;7.614;2022-11-15T01:50:22;7.32;;;3.60;;
50569;SDS011;36525;49.398;7.614;2022-11-15T01:52:56;5.63;;;3.95;;
50569;SDS011;36525;49.398;7.614;2022-11-15T01:55:24;5.97;;;3.75;;
50569;SDS011;36525;49.398;7.614;2022-11-15T01:57:54;7.22;;;3.72;;
50569;SDS011;36525;49.398;7.614;2022-11-15T02:00:26;9.35;;;4.43;;
50569;SDS011;36525;49.398;7.614;2022-11-15T02:02:54;7.97;;;4.03;;
50569;SDS011;36525;49.398;7.614;2022-11-15T02:05:21;5.68;;;3.47;;
50569;SDS011;36525;49.398;7.614;2022-11-15T02:07:48;6.10;;;3.47;;
50569;SDS011;36525;49.398;7.614;2022-11-15T02:10:20;7.18;;;3.45;;
50569;SDS011;36525;49.398;7.614;2022-11-15T02:12:49;6.57;;;3.65;;
50569;SDS011;36525;49.398;7.614;2022-11-15T02:15:17;5.28;;;3.83;;
50569;SDS011;36525;49.398;7.614;2022-11-15T02:17:51;6.40;;;3.30;;
50569;SDS011;36525;49.398;7.614;2022-11-15T02:23:56;8.23;;;4.10;;
50569;SDS011;36525;49.398;7.614;2022-11-15T02:27:15;7.60;;;3.33;;
50569;SDS011;36525;49.398;7.614;2022-11-15T02:30:21;6.55;;;3.85;;
50569;SDS011;36525;49.398;7.614;2022-11-15T02:35:59;6.22;;;3.65;;
50569;SDS011;36525;49.398;7.614;2022-11-15T02:38:53;5.93;;;3.33;;
50569;SDS011;36525;49.398;7.614;2022-11-15T02:47:09;5.97;;;3.92;;
50569;SDS011;36525;49.398;7.614;2022-11-15T02:49:52;7.07;;;3.95;;
50569;SDS011;36525;49.398;7.614;2022-11-15T02:52:23;7.57;;;4.25;;
50569;SDS011;36525;49.398;7.614;2022-11-15T02:54:54;6.80;;;3.92;;
50569;SDS011;36525;49.398;7.614;2022-11-15T02:57:33;6.47;;;3.50;;
50569;SDS011;36525;49.398;7.614;2022-11-15T03:00:23;6.72;;;3.80;;
50569;SDS011;36525;49.398;7.614;2022-11-15T03:03:04;5.90;;;4.10;;
50569;SDS011;36525;49.398;7.614;2022-11-15T03:11:27;7.85;;;4.00;;
50569;SDS011;36525;49.398;7.614;2022-11-15T03:14:06;8.38;;;4.63;;
50569;SDS011;36525;49.398;7.614;2022-11-15T03:16:53;5.18;;;3.40;;
50569;SDS011;36525;49.398;7.614;2022-11-15T03:19:49;7.80;;;4.50;;
50569;SDS011;36525;49.398;7.614;2022-11-15T03:22:20;6.47;;;3.40;;
50569;SDS011;36525;49.398;7.614;2022-11-15T03:24:52;6.93;;;4.07;;
50569;SDS011;36525;49.398;7.614;2022-11-15T03:27:23;4.93;;;3.78;;
50569;SDS011;36525;49.398;7.614;2022-11-15T03:30:04;6.38;;;3.50;;
50569;SDS011;36525;49.398;7.614;2022-11-15T03:32:35;6.32;;;4.25;;
50569;SDS011;36525;49.398;7.614;2022-11-15T03:35:20;6.03;;;3.80;;
50569;SDS011;36525;49.398;7.614;2022-11-15T03:40:42;5.60;;;3.42;;
50569;SDS011;36525;49.398;7.614;2022-11-15T03:46:16;5.28;;;3.70;;
50569;SDS011;36525;49.398;7.614;2022-11-15T03:48:53;5.50;;;4.00;;
50569;SDS011;36525;49.398;7.614;2022-11-15T03:51:31;7.18;;;3.65;;
50569;SDS011;36525;49.398;7.614;2022-11-15T03:53:58;8.73;;;3.63;;
50569;SDS011;36525;49.398;7.614;2022-11-15T03:56:25;5.97;;;3.80;;
50569;SDS011;36525;49.398;7.614;2022-11-15T03:58:51;5.80;;;3.75;;
50569;SDS011;36525;49.398;7.614;2022-11-15T04:01:18;6.15;;;3.60;;
50569;SDS011;36525;49.398;7.614;2022-11-15T04:03:45;8.00;;;3.78;;
50569;SDS011;36525;49.398;7.614;2022-11-15T04:06:12;5.82;;;3.20;;
50569;SDS011;36525;49.398;7.614;2022-11-15T04:08:39;4.72;;;3.50;;
50569;SDS011;36525;49.398;7.614;2022-11-15T04:11:06;5.25;;;3.80;;
50569;SDS011;36525;49.398;7.614;2022-11-15T04:13:33;6.15;;;3.00;;
50569;SDS011;36525;49.398;7.614;2022-11-15T04:16:00;5.07;;;3.45;;
50569;SDS011;36525;49.398;7.614;2022-11-15T04:18:27;5.90;;;3.08;;
50569;SDS011;36525;49.398;7.614;2022-11-15T04:20:54;4.70;;;3.28;;
50569;SDS011;36525;49.398;7.614;2022-11-15T04:23:39;6.10;;;3.55;;
50569;SDS011;36525;49.398;7.614;2022-11-15T04:26:24;4.90;;;3.35;;
50569;SDS011;36525;49.398;7.614;2022-11-15T04:28:51;6.90;;;3.50;;
50569;SDS011;36525;49.398;7.614;2022-11-15T04:31:37;5.65;;;3.28;;
50569;SDS011;36525;49.398;7.614;2022-11-15T04:34:04;5.03;;;3.42;;
50569;SDS011;36525;49.398;7.614;2022-11-15T04:36:31;6.47;;;3.33;;
50569;SDS011;36525;49.398;7.614;2022-11-15T04:39:16;6.18;;;3.53;;
50569;SDS011;36525;49.398;7.614;2022-11-15T04:41:43;6.45;;;3.28;;
50569;SDS011;36525;49.398;7.614;2022-11-15T04:44:10;6.03;;;3.63;;
50569;SDS011;36525;49.398;7.614;2022-11-15T04:46:36;5.25;;;3.05;;
50569;SDS011;36525;49.398;7.614;2022-11-15T04:49:03;7.50;;;3.50;;
50569;SDS011;36525;49.398;7.614;2022-11-15T04:51:30;4.68;;;3.15;;
50569;SDS011;36525;49.398;7.614;2022-11-15T04:53:57;4.32;;;3.47;;
50569;SDS011;36525;49.398;7.614;2022-11-15T04:56:24;5.65;;;3.08;;
50569;SDS011;36525;49.398;7.614;2022-11-15T04:58:51;5.47;;;3.55;;
50569;SDS011;36525;49.398;7.614;2022-11-15T05:01:18;4.72;;;2.50;;
50569;SDS011;36525;49.398;7.614;2022-11-15T05:03:45;5.13;;;2.80;;
50569;SDS011;36525;49.398;7.614;2022-11-15T05:06:30;3.40;;;2.60;;
50569;SDS011;36525;49.398;7.614;2022-11-15T05:08:57;5.72;;;3.33;;
50569;SDS011;36525;49.398;7.614;2022-11-15T05:11:24;3.70;;;2.42;;
50569;SDS011;36525;49.398;7.614;2022-11-15T05:13:53;4.28;;;2.40;;
50569;SDS011;36525;49.398;7.614;2022-11-15T05:16:20;4.88;;;2.65;;
50569;SDS011;36525;49.398;7.614;2022-11-15T05:18:50;4.10;;;2.50;;
50569;SDS011;36525;49.398;7.614;2022-11-15T05:21:20;5.40;;;2.45;;
50569;SDS011;36525;49.398;7.614;2022-11-15T05:23:48;4.05;;;2.30;;
50569;SDS011;36525;49.398;7.614;2022-11-15T05:26:16;5.22;;;2.42;;
50569;SDS011;36525;49.398;7.614;2022-11-15T05:28:44;4.57;;;2.28;;
50569;SDS011;36525;49.398;7.614;2022-11-15T05:31:12;3.70;;;2.15;;
50569;SDS011;36525;49.398;7.614;2022-11-15T05:33:42;4.95;;;2.47;;
50569;SDS011;36525;49.398;7.614;2022-11-15T05:38:46;4.15;;;2.05;;
50569;SDS011;36525;49.398;7.614;2022-11-15T05:41:14;4.32;;;2.00;;
50569;SDS011;36525;49.398;7.614;2022-11-15T05:43:43;4.63;;;1.98;;
50569;SDS011;36525;49.398;7.614;2022-11-15T05:46:11;3.50;;;2.15;;
50569;SDS011;36525;49.398;7.614;2022-11-15T05:48:40;3.70;;;1.98;;
50569;SDS011;36525;49.398;7.614;2022-11-15T05:51:11;3.65;;;1.90;;
50569;SDS011;36525;49.398;7.614;2022-11-15T05:53:40;3.47;;;2.05;;
50569;SDS011;36525;49.398;7.614;2022-11-15T05:56:08;5.68;;;2.13;;
50569;SDS011;36525;49.398;7.614;2022-11-15T05:58:35;3.75;;;2.05;;
50569;SDS011;36525;49.398;7.614;2022-11-15T06:01:03;3.22;;;2.15;;
50569;SDS011;36525;49.398;7.614;2022-11-15T06:03:30;4.93;;;2.10;;
50569;SDS011;36525;49.398;7.614;2022-11-15T06:05:58;4.30;;;2.03;;
50569;SDS011;36525;49.398;7.614;2022-11-15T06:08:25;3.35;;;1.67;;
50569;SDS011;36525;49.398;7.614;2022-11-15T06:10:52;5.05;;;2.65;;
50569;SDS011;36525;49.398;7.614;2022-11-15T06:13:19;3.60;;;2.30;;
50569;SDS011;36525;49.398;7.614;2022-11-15T06:15:45;5.68;;;2.40;;
50569;SDS011;36525;49.398;7.614;2022-11-15T06:18:12;9.35;;;2.75;;
50569;SDS011;36525;49.398;7.614;2022-11-15T06:20:39;3.60;;;2.08;;
50569;SDS011;36525;49.398;7.614;2022-11-15T06:23:06;4.35;;;2.38;;
50569;SDS011;36525;49.398;7.614;2022-11-15T06:25:33;3.95;;;2.35;;
50569;SDS011;36525;49.398;7.614;2022-11-15T06:28:00;4.07;;;2.22;;
50569;SDS011;36525;49.398;7.614;2022-11-15T06:30:27;4.63;;;2.90;;
50569;SDS011;36525;49.398;7.614;2022-11-15T06:33:04;4.65;;;2.60;;
50569;SDS011;36525;49.398;7.614;2022-11-15T06:35:33;5.35;;;3.25;;
50569;SDS011;36525;49.398;7.614;2022-11-15T06:38:02;7.93;;;3.15;;
50569;SDS011;36525;49.398;7.614;2022-11-15T06:40:32;4.43;;;3.03;;
50569;SDS011;36525;49.398;7.614;2022-11-15T06:43:01;7.82;;;3.28;;
50569;SDS011;36525;49.398;7.614;2022-11-15T06:45:30;8.10;;;3.60;;
50569;SDS011;36525;49.398;7.614;2022-11-15T06:47:57;8.15;;;4.22;;
50569;SDS011;36525;49.398;7.614;2022-11-15T06:50:24;6.38;;;3.50;;
50569;SDS011;36525;49.398;7.614;2022-11-15T06:52:52;5.35;;;3.70;;
50569;SDS011;36525;49.398;7.614;2022-11-15T06:55:19;6.35;;;3.85;;
50569;SDS011;36525;49.398;7.614;2022-11-15T06:57:46;5.95;;;3.55;;
50569;SDS011;36525;49.398;7.614;2022-11-15T07:00:16;5.95;;;3.92;;
50569;SDS011;36525;49.398;7.614;2022-11-15T07:02:45;7.30;;;3.78;;
50569;SDS011;36525;49.398;7.614;2022-11-15T07:05:13;5.25;;;3.28;;
50569;SDS011;36525;49.398;7.614;2022-11-15T07:07:41;6.43;;;4.18;;
50569;SDS011;36525;49.398;7.614;2022-11-15T07:10:08;6.75;;;3.65;;
50569;SDS011;36525;49.398;7.614;2022-11-15T07:12:36;9.10;;;4.10;;
50569;SDS011;36525;49.398;7.614;2022-11-15T07:15:03;5.45;;;3.10;;
50569;SDS011;36525;49.398;7.614;2022-11-15T07:17:30;5.28;;;3.40;;
50569;SDS011;36525;49.398;7.614;2022-11-15T07:19:58;5.20;;;3.72;;
50569;SDS011;36525;49.398;7.614;2022-11-15T07:22:25;4.57;;;2.85;;
50569;SDS011;36525;49.398;7.614;2022-11-15T07:24:52;5.80;;;3.13;;
50569;SDS011;36525;49.398;7.614;2022-11-15T07:27:18;5.93;;;3.10;;
50569;SDS011;36525;49.398;7.614;2022-11-15T07:29:45;5.00;;;2.63;;
50569;SDS011;36525;49.398;7.614;2022-11-15T07:32:12;4.68;;;3.30;;
50569;SDS011;36525;49.398;7.614;2022-11-15T07:34:39;5.78;;;3.38;;
50569;SDS011;36525;49.398;7.614;2022-11-15T07:37:06;4.47;;;3.13;;
50569;SDS011;36525;49.398;7.614;2022-11-15T07:39:33;5.35;;;2.70;;
50569;SDS011;36525;49.398;7.614;2022-11-15T07:42:00;5.32;;;3.53;;
50569;SDS011;36525;49.398;7.614;2022-11-15T07:44:45;5.40;;;3.42;;
50569;SDS011;36525;49.398;7.614;2022-11-15T07:47:12;5.22;;;3.53;;
50569;SDS011;36525;49.398;7.614;2022-11-15T07:49:39;5.63;;;2.88;;
50569;SDS011;36525;49.398;7.614;2022-11-15T07:52:07;6.43;;;3.00;;
50569;SDS011;36525;49.398;7.614;2022-11-15T07:54:33;7.13;;;3.20;;
50569;SDS011;36525;49.398;7.614;2022-11-15T07:57:00;4.40;;;2.88;;
50569;SDS011;36525;49.398;7.614;2022-11-15T07:59:32;8.70;;;3.70;;
50569;SDS011;36525;49.398;7.614;2022-11-15T08:02:01;6.05;;;3.40;;
50569;SDS011;36525;49.398;7.614;2022-11-15T08:04:28;4.45;;;2.75;;
50569;SDS011;36525;49.398;7.614;2022-11-15T08:06:55;4.00;;;3.10;;
50569;SDS011;36525;49.398;7.614;2022-11-15T08:09:23;5.15;;;2.70;;
50569;SDS011;36525;49.398;7.614;2022-11-15T08:11:50;4.95;;;3.20;;
50569;SDS011;36525;49.398;7.614;2022-11-15T08:14:17;5.15;;;2.88;;
50569;SDS011;36525;49.398;7.614;2022-11-15T08:16:44;5.32;;;3.22;;
50569;SDS011;36525;49.398;7.614;2022-11-15T08:19:11;4.75;;;3.08;;
50569;SDS011;36525;49.398;7.614;2022-11-15T08:21:37;5.55;;;3.10;;
50569;SDS011;36525;49.398;7.614;2022-11-15T08:24:04;5.20;;;2.67;;
50569;SDS011;36525;49.398;7.614;2022-11-15T08:26:32;4.25;;;3.13;;
50569;SDS011;36525;49.398;7.614;2022-11-15T08:28:59;5.32;;;2.90;;
50569;SDS011;36525;49.398;7.614;2022-11-15T08:31:25;5.93;;;3.58;;
50569;SDS011;36525;49.398;7.614;2022-11-15T08:33:52;5.25;;;3.25;;
50569;SDS011;36525;49.398;7.614;2022-11-15T08:36:20;5.47;;;3.20;;
50569;SDS011;36525;49.398;7.614;2022-11-15T08:38:47;4.43;;;2.65;;
50569;SDS011;36525;49.398;7.614;2022-11-15T08:41:22;4.15;;;2.67;;
50569;SDS011;36525;49.398;7.614;2022-11-15T08:43:59;4.38;;;2.70;;
50569;SDS011;36525;49.398;7.614;2022-11-15T08:46:26;4.00;;;2.40;;
50569;SDS011;36525;49.398;7.614;2022-11-15T08:48:53;4.75;;;2.50;;
50569;SDS011;36525;49.398;7.614;2022-11-15T08:51:20;4.55;;;2.95;;
50569;SDS011;36525;49.398;7.614;2022-11-15T08:53:47;6.05;;;2.95;;
50569;SDS011;36525;49.398;7.614;2022-11-15T08:56:14;4.75;;;2.58;;
50569;SDS011;36525;49.398;7.614;2022-11-15T08:58:41;4.70;;;2.55;;
50569;SDS011;36525;49.398;7.614;2022-11-15T09:01:18;4.05;;;2.38;;
50569;SDS011;36525;49.398;7.614;2022-11-15T09:03:46;4.32;;;2.80;;
50569;SDS011;36525;49.398;7.614;2022-11-15T09:06:14;7.07;;;2.80;;
50569;SDS011;36525;49.398;7.614;2022-11-15T09:08:41;3.45;;;2.55;;
50569;SDS011;36525;49.398;7.614;2022-11-15T09:11:17;4.43;;;2.25;;
50569;SDS011;36525;49.398;7.614;2022-11-15T09:13:46;4.40;;;2.50;;
50569;SDS011;36525;49.398;7.614;2022-11-15T09:16:13;6.10;;;1.98;;
50569;SDS011;36525;49.398;7.614;2022-11-15T09:18:41;6.20;;;2.10;;
50569;SDS011;36525;49.398;7.614;2022-11-15T09:21:08;4.75;;;2.30;;
50569;SDS011;36525;49.398;7.614;2022-11-15T09:23:36;3.83;;;2.13;;
50569;SDS011;36525;49.398;7.614;2022-11-15T09:26:04;4.22;;;2.47;;
50569;SDS011;36525;49.398;7.614;2022-11-15T09:28:32;3.53;;;2.33;;
50569;SDS011;36525;49.398;7.614;2022-11-15T09:31:01;4.55;;;2.80;;
50569;SDS011;36525;49.398;7.614;2022-11-15T09:33:30;4.90;;;2.45;;
50569;SDS011;36525;49.398;7.614;2022-11-15T09:36:01;4.07;;;1.85;;
50569;SDS011;36525;49.398;7.614;2022-11-15T09:38:35;5.05;;;2.60;;
50569;SDS011;36525;49.398;7.614;2022-11-15T09:49:51;5.57;;;2.58;;
50569;SDS011;36525;49.398;7.614;2022-11-15T09:52:23;4.28;;;2.40;;
50569;SDS011;36525;49.398;7.614;2022-11-15T09:54:51;8.63;;;3.03;;
50569;SDS011;36525;49.398;7.614;2022-11-15T10:03:16;4.53;;;2.50;;
50569;SDS011;36525;49.398;7.614;2022-11-15T10:05:53;4.68;;;2.35;;
50569;SDS011;36525;49.398;7.614;2022-11-15T10:08:30;3.55;;;1.73;;
50569;SDS011;36525;49.398;7.614;2022-11-15T10:11:08;4.30;;;1.67;;
50569;SDS011;36525;49.398;7.614;2022-11-15T10:13:59;3.05;;;1.60;;
50569;SDS011;36525;49.398;7.614;2022-11-15T10:16:43;2.80;;;1.65;;
50569;SDS011;36525;49.398;7.614;2022-11-15T10:20:22;2.17;;;1.33;;
50569;SDS011;36525;49.398;7.614;2022-11-15T10:23:05;2.83;;;1.50;;
50569;SDS011;36525;49.398;7.614;2022-11-15T10:25:37;2.60;;;1.10;;
50569;SDS011;36525;49.398;7.614;2022-11-15T10:30:56;5.43;;;1.17;;
50569;SDS011;36525;49.398;7.614;2022-11-15T10:41:21;3.40;;;1.33;;
50569;SDS011;36525;49.398;7.614;2022-11-15T10:44:41;2.63;;;1.25;;
50569;SDS011;36525;49.398;7.614;2022-11-15T10:49:25;3.70;;;1.33;;
50569;SDS011;36525;49.398;7.614;2022-11-15T10:51:58;3.78;;;1.10;;
50569;SDS011;36525;49.398;7.614;2022-11-15T10:54:51;3.95;;;1.42;;
50569;SDS011;36525;49.398;7.614;2022-11-15T10:57:47;2.78;;;1.00;;
50569;SDS011;36525;49.398;7.614;2022-11-15T11:02:56;3.08;;;1.10;;
50569;SDS011;36525;49.398;7.614;2022-11-15T11:05:32;3.92;;;1.20;;
50569;SDS011;36525;49.398;7.614;2022-11-15T11:10:37;2.03;;;1.00;;
50569;SDS011;36525;49.398;7.614;2022-11-15T11:13:31;3.30;;;1.17;;
50569;SDS011;36525;49.398;7.614;2022-11-15T11:19:30;3.35;;;1.10;;
50569;SDS011;36525;49.398;7.614;2022-11-15T11:22:24;1.75;;;1.00;;
50569;SDS011;36525;49.398;7.614;2022-11-15T11:28:39;2.53;;;1.10;;
50569;SDS011;36525;49.398;7.614;2022-11-15T11:42:25;3.10;;;1.33;;
50569;SDS011;36525;49.398;7.614;2022-11-15T11:50:33;1.80;;;1.05;;
50569;SDS011;36525;49.398;7.614;2022-11-15T11:55:58;3.13;;;0.90;;
50569;SDS011;36525;49.398;7.614;2022-11-15T11:58:36;2.50;;;1.02;;
50569;SDS011;36525;49.398;7.614;2022-11-15T12:03:47;3.58;;;1.10;;
50569;SDS011;36525;49.398;7.614;2022-11-15T12:06:33;3.70;;;1.20;;
50569;SDS011;36525;49.398;7.614;2022-11-15T12:09:13;4.03;;;1.33;;
50569;SDS011;36525;49.398;7.614;2022-11-15T12:17:17;3.67;;;1.02;;
50569;SDS011;36525;49.398;7.614;2022-11-15T12:19:49;2.85;;;0.88;;
50569;SDS011;36525;49.398;7.614;2022-11-15T12:22:33;2.17;;;0.90;;
50569;SDS011;36525;49.398;7.614;2022-11-15T12:28:08;3.53;;;0.82;;
50569;SDS011;36525;49.398;7.614;2022-11-15T12:34:04;4.70;;;0.90;;
50569;SDS011;36525;49.398;7.614;2022-11-15T12:36:55;1.63;;;0.88;;
50569;SDS011;36525;49.398;7.614;2022-11-15T12:40:02;1.58;;;0.80;;
50569;SDS011;36525;49.398;7.614;2022-11-15T12:45:37;4.00;;;1.50;;
50569;SDS011;36525;49.398;7.614;2022-11-15T12:58:46;2.55;;;0.60;;
50569;SDS011;36525;49.398;7.614;2022-11-15T13:12:50;3.03;;;0.60;;
50569;SDS011;36525;49.398;7.614;2022-11-15T13:17:26;3.88;;;1.15;;
50569;SDS011;36525;49.398;7.614;2022-11-15T13:22:38;1.95;;;1.02;;
50569;SDS011;36525;49.398;7.614;2022-11-15T13:30:36;1.65;;;0.80;;
50569;SDS011;36525;49.398;7.614;2022-11-15T13:33:13;2.65;;;0.70;;
50569;SDS011;36525;49.398;7.614;2022-11-15T13:35:45;1.77;;;0.70;;
50569;SDS011;36525;49.398;7.614;2022-11-15T13:38:26;1.92;;;0.90;;
50569;SDS011;36525;49.398;7.614;2022-11-15T13:41:10;1.95;;;0.68;;
50569;SDS011;36525;49.398;7.614;2022-11-15T13:43:47;1.70;;;0.80;;
50569;SDS011;36525;49.398;7.614;2022-11-15T13:46:17;1.60;;;0.70;;
50569;SDS011;36525;49.398;7.614;2022-11-15T13:56:48;1.65;;;0.80;;
50569;SDS011;36525;49.398;7.614;2022-11-15T14:04:23;1.77;;;0.77;;
50569;SDS011;36525;49.398;7.614;2022-11-15T14:15:35;1.25;;;0.70;;
50569;SDS011;36525;49.398;7.614;2022-11-15T14:18:04;1.95;;;0.80;;
50569;SDS011;36525;49.398;7.614;2022-11-15T14:20:33;1.67;;;0.93;;
50569;SDS011;36525;49.398;7.614;2022-11-15T14:23:03;1.50;;;0.63;;
50569;SDS011;36525;49.398;7.614;2022-11-15T14:25:55;2.17;;;0.70;;
50569;SDS011;36525;49.398;7.614;2022-11-15T14:30:51;1.83;;;0.68;;
50569;SDS011;36525;49.398;7.614;2022-11-15T14:36:10;2.08;;;0.70;;
50569;SDS011;36525;49.398;7.614;2022-11-15T14:38:42;1.90;;;0.80;;
50569;SDS011;36525;49.398;7.614;2022-11-15T14:41:17;2.53;;;0.95;;
50569;SDS011;36525;49.398;7.614;2022-11-15T14:43:45;2.50;;;0.85;;
50569;SDS011;36525;49.398;7.614;2022-11-15T14:46:12;3.35;;;0.80;;
50569;SDS011;36525;49.398;7.614;2022-11-15T14:48:39;2.67;;;0.80;;
50569;SDS011;36525;49.398;7.614;2022-11-15T14:51:11;5.57;;;1.13;;
50569;SDS011;36525;49.398;7.614;2022-11-15T14:53:45;2.33;;;0.90;;
50569;SDS011;36525;49.398;7.614;2022-11-15T14:56:13;2.72;;;0.80;;
50569;SDS011;36525;49.398;7.614;2022-11-15T14:58:40;3.00;;;1.00;;
50569;SDS011;36525;49.398;7.614;2022-11-15T15:01:19;2.38;;;1.13;;
50569;SDS011;36525;49.398;7.614;2022-11-15T15:03:50;1.50;;;0.80;;
50569;SDS011;36525;49.398;7.614;2022-11-15T15:06:18;2.55;;;1.00;;
50569;SDS011;36525;49.398;7.614;2022-11-15T15:08:45;1.65;;;0.85;;
50569;SDS011;36525;49.398;7.614;2022-11-15T15:11:18;2.28;;;1.15;;
50569;SDS011;36525;49.398;7.614;2022-11-15T15:13:50;2.90;;;0.80;;
50569;SDS011;36525;49.398;7.614;2022-11-15T15:16:18;4.68;;;0.90;;
50569;SDS011;36525;49.398;7.614;2022-11-15T15:18:45;2.05;;;0.73;;
50569;SDS011;36525;49.398;7.614;2022-11-15T15:21:20;2.65;;;0.80;;
50569;SDS011;36525;49.398;7.614;2022-11-15T15:23:50;3.17;;;0.90;;
50569;SDS011;36525;49.398;7.614;2022-11-15T15:26:20;3.28;;;0.90;;
50569;SDS011;36525;49.398;7.614;2022-11-15T15:28:48;1.48;;;0.70;;
50569;SDS011;36525;49.398;7.614;2022-11-15T15:31:17;3.53;;;1.10;;
50569;SDS011;36525;49.398;7.614;2022-11-15T15:33:44;3.42;;;1.15;;
50569;SDS011;36525;49.398;7.614;2022-11-15T15:36:12;5.88;;;1.20;;
50569;SDS011;36525;49.398;7.614;2022-11-15T15:38:40;3.67;;;1.17;;
50569;SDS011;36525;49.398;7.614;2022-11-15T15:41:11;2.75;;;1.35;;
50569;SDS011;36525;49.398;7.614;2022-11-15T15:43:38;2.70;;;1.20;;
50569;SDS011;36525;49.398;7.614;2022-11-15T15:46:12;2.42;;;0.95;;
50569;SDS011;36525;49.398;7.614;2022-11-15T15:48:42;3.50;;;1.88;;
50569;SDS011;36525;49.398;7.614;2022-11-15T15:51:09;3.97;;;1.50;;
50569;SDS011;36525;49.398;7.614;2022-11-15T15:53:45;6.18;;;1.27;;
50569;SDS011;36525;49.398;7.614;2022-11-15T15:56:13;6.10;;;1.60;;
50569;SDS011;36525;49.398;7.614;2022-11-15T15:58:40;2.60;;;1.08;;
50569;SDS011;36525;49.398;7.614;2022-11-15T16:01:07;5.32;;;1.33;;
50569;SDS011;36525;49.398;7.614;2022-11-15T16:03:34;3.22;;;1.00;;
50569;SDS011;36525;49.398;7.614;2022-11-15T16:06:01;2.08;;;0.90;;
50569;SDS011;36525;49.398;7.614;2022-11-15T16:08:30;4.40;;;1.27;;
50569;SDS011;36525;49.398;7.614;2022-11-15T16:11:17;4.43;;;1.55;;
50569;SDS011;36525;49.398;7.614;2022-11-15T16:13:44;3.88;;;1.73;;
50569;SDS011;36525;49.398;7.614;2022-11-15T16:16:12;5.53;;;2.00;;
50569;SDS011;36525;49.398;7.614;2022-11-15T16:18:39;3.15;;;1.20;;
50569;SDS011;36525;49.398;7.614;2022-11-15T16:21:07;4.05;;;1.60;;
50569;SDS011;36525;49.398;7.614;2022-11-15T16:23:34;5.78;;;1.90;;
50569;SDS011;36525;49.398;7.614;2022-11-15T16:26:01;4.50;;;2.05;;
50569;SDS011;36525;49.398;7.614;2022-11-15T16:28:30;2.67;;;1.30;;
50569;SDS011;36525;49.398;7.614;2022-11-15T16:31:01;5.13;;;1.33;;
50569;SDS011;36525;49.398;7.614;2022-11-15T16:33:31;4.30;;;1.10;;
50569;SDS011;36525;49.398;7.614;2022-11-15T16:35:59;3.17;;;1.10;;
50569;SDS011;36525;49.398;7.614;2022-11-15T16:38:26;3.17;;;1.08;;
50569;SDS011;36525;49.398;7.614;2022-11-15T16:40:54;2.35;;;1.00;;
50569;SDS011;36525;49.398;7.614;2022-11-15T16:43:20;2.95;;;1.10;;
50569;SDS011;36525;49.398;7.614;2022-11-15T16:45:48;1.95;;;1.05;;
50569;SDS011;36525;49.398;7.614;2022-11-15T16:48:26;3.33;;;0.88;;
50569;SDS011;36525;49.398;7.614;2022-11-15T16:50:54;3.15;;;1.00;;
50569;SDS011;36525;49.398;7.614;2022-11-15T16:53:25;5.60;;;1.80;;
50569;SDS011;36525;49.398;7.614;2022-11-15T16:55:56;2.80;;;1.30;;
50569;SDS011;36525;49.398;7.614;2022-11-15T16:58:23;4.43;;;1.38;;
50569;SDS011;36525;49.398;7.614;2022-11-15T17:00:51;4.85;;;1.88;;
50569;SDS011;36525;49.398;7.614;2022-11-15T17:03:20;3.47;;;1.95;;
50569;SDS011;36525;49.398;7.614;2022-11-15T17:05:48;3.40;;;1.60;;
50569;SDS011;36525;49.398;7.614;2022-11-15T17:08:16;7.03;;;2.33;;
50569;SDS011;36525;49.398;7.614;2022-11-15T17:10:43;5.35;;;2.35;;
50569;SDS011;36525;49.398;7.614;2022-11-15T17:13:13;4.30;;;2.10;;
50569;SDS011;36525;49.398;7.614;2022-11-15T17:15:40;8.15;;;3.50;;
50569;SDS011;36525;49.398;7.614;2022-11-15T17:18:11;4.10;;;2.15;;
50569;SDS011;36525;49.398;7.614;2022-11-15T17:20:39;10.70;;;5.35;;
50569;SDS011;36525;49.398;7.614;2022-11-15T17:23:13;6.57;;;2.08;;
50569;SDS011;36525;49.398;7.614;2022-11-15T17:25:40;3.10;;;1.67;;
50569;SDS011;36525;49.398;7.614;2022-11-15T17:28:09;3.53;;;1.83;;
50569;SDS011;36525;49.398;7.614;2022-11-15T17:30:39;4.10;;;1.77;;
50569;SDS011;36525;49.398;7.614;2022-11-15T17:33:08;5.72;;;1.85;;
50569;SDS011;36525;49.398;7.614;2022-11-15T17:35:35;6.32;;;1.80;;
50569;SDS011;36525;49.398;7.614;2022-11-15T17:38:01;4.80;;;1.42;;
50569;SDS011;36525;49.398;7.614;2022-11-15T17:40:28;4.75;;;2.08;;
50569;SDS011;36525;49.398;7.614;2022-11-15T17:42:55;3.78;;;1.65;;
50569;SDS011;36525;49.398;7.614;2022-11-15T17:45:22;3.10;;;1.50;;
50569;SDS011;36525;49.398;7.614;2022-11-15T17:47:49;3.17;;;1.70;;
50569;SDS011;36525;49.398;7.614;2022-11-15T17:50:16;2.92;;;1.50;;
50569;SDS011;36525;49.398;7.614;2022-11-15T17:52:43;6.95;;;4.07;;
50569;SDS011;36525;49.398;7.614;2022-11-15T17:55:10;4.03;;;2.00;;